Terminal Aerodrome Forecast
Issued by NWS

Home | Current Version | Previous Version | Text Only | Print | Product List | Glossary On
Versions: 1 2 3 4 5 6 7 8 9 10 11 12
000
FTUS46 KHNX 051133
TAFVIS
TAF
KVIS 051133Z 0512/0612 12005KT P6SM SCT060 BKN100
     FM051800 22006KT P6SM SCT030 BKN060
     FM060200 28006KT P6SM SCT030 BKN050 PROB30 0602/0606 -SHRA
     FM060600 27004KT P6SM OVC050 PROB30 0606/0609 P6SM -RA BKN040=

USA.gov is the U.S. government's official web portal to all federal, state and local government web resources and services.